Time;durP1;ratioP1;P1;durP2;ratioP2;P2;SDS_P1;SDS_P2;PMS_P1;PMS_P2;Temp;Humidity;BMP_temperature;BMP_pressure;BME280_temperature;BME280_humidity;BME280_pressure;Samples;Min_cycle;Max_cycle;Signal;HPM_P1;HPM_P2
2024/02/11 00:01:28;;;;;;;2.97;2.73;;;17.10;1.00;;;;;;2612004;54;20428;-66
2024/02/11 00:03:54;;;;;;;2.30;2.10;;;17.00;1.00;;;;;;2612902;54;20167;-66
2024/02/11 00:06:20;;;;;;;3.20;3.00;;;17.00;1.00;;;;;;2612863;47;20211;-66
2024/02/11 00:08:48;;;;;;;2.53;2.33;;;17.10;1.00;;;;;;2613793;54;20156;-66
2024/02/11 00:11:13;;;;;;;1.83;1.73;;;17.10;1.00;;;;;;2613780;54;20163;-66
2024/02/11 00:13:40;;;;;;;2.53;2.33;;;17.10;1.00;;;;;;2613481;54;20463;-60
2024/02/11 00:16:09;;;;;;;2.73;2.53;;;17.10;1.00;;;;;;2613518;54;20177;-60
2024/02/11 00:18:37;;;;;;;2.77;2.47;;;17.00;1.00;;;;;;2612626;54;20486;-60
2024/02/11 00:21:04;;;;;;;2.97;2.20;;;17.10;1.00;;;;;;2612198;54;20968;-61
2024/02/11 00:23:30;;;;;;;2.47;2.27;;;17.00;1.00;;;;;;2612614;54;20429;-66
2024/02/11 00:25:56;;;;;;;2.50;2.30;;;17.10;1.00;;;;;;2613462;54;20428;-65
2024/02/11 00:28:21;;;;;;;2.80;2.60;;;17.00;1.00;;;;;;2613759;39;20663;-66
2024/02/11 00:30:48;;;;;;;3.27;2.60;;;17.00;1.00;;;;;;2613578;54;20442;-66
2024/02/11 00:33:15;;;;;;;2.47;2.27;;;17.00;1.00;;;;;;2613825;54;20159;-66
2024/02/11 00:35:41;;;;;;;2.57;2.37;;;17.00;1.00;;;;;;2613317;54;20411;-65
2024/02/11 00:38:07;;;;;;;2.97;2.67;;;17.00;1.00;;;;;;2613221;54;20529;-65
2024/02/11 00:40:32;;;;;;;2.30;2.03;;;17.10;1.00;;;;;;2612900;54;20194;-66
2024/02/11 00:42:59;;;;;;;2.87;2.67;;;17.00;1.00;;;;;;2613333;39;20798;-66
2024/02/11 00:45:29;;;;;;;2.70;2.50;;;17.00;1.00;;;;;;2613180;54;20153;-66
2024/02/11 00:47:54;;;;;;;2.70;2.50;;;17.00;1.00;;;;;;2613767;54;20456;-66
2024/02/11 00:50:20;;;;;;;2.90;2.63;;;17.00;1.00;;;;;;2612687;47;20443;-65
2024/02/11 00:52:48;;;;;;;2.60;2.40;;;17.00;1.00;;;;;;2613301;54;20209;-66
2024/02/11 00:55:21;;;;;;;2.60;2.40;;;17.00;1.00;;;;;;2613063;54;20688;-64
2024/02/11 00:57:48;;;;;;;2.90;2.70;;;17.00;1.00;;;;;;2613009;47;20467;-65
2024/02/11 01:00:15;;;;;;;3.37;3.07;;;17.00;1.00;;;;;;2613522;39;20982;-66
2024/02/11 01:02:42;;;;;;;3.03;2.70;;;17.00;1.00;;;;;;2613166;54;20438;-62
2024/02/11 01:05:10;;;;;;;3.53;3.23;;;17.00;1.00;;;;;;2612706;54;20440;-63
2024/02/11 01:07:40;;;;;;;3.23;2.93;;;17.00;1.00;;;;;;2613081;54;20459;-62
2024/02/11 01:10:15;;;;;;;3.33;3.10;;;17.00;1.00;;;;;;2613020;54;20476;-62
2024/02/11 01:12:42;;;;;;;2.30;2.10;;;17.00;1.00;;;;;;2612661;47;20419;-63
2024/02/11 01:15:12;;;;;;;2.90;2.70;;;17.00;1.00;;;;;;2612938;54;20456;-62
2024/02/11 01:17:41;;;;;;;2.47;2.27;;;17.00;1.00;;;;;;2613950;39;20634;-63
2024/02/11 01:20:13;;;;;;;2.80;2.60;;;17.00;1.00;;;;;;2612783;47;20419;-62
2024/02/11 01:22:41;;;;;;;2.97;2.77;;;17.00;1.00;;;;;;2613116;54;20979;-59
2024/02/11 01:25:06;;;;;;;2.70;2.37;;;17.00;1.00;;;;;;2613004;47;20437;-58
2024/02/11 01:27:33;;;;;;;3.37;2.93;;;17.00;1.00;;;;;;2612887;54;20524;-58
2024/02/11 01:29:59;;;;;;;2.83;2.63;;;17.00;1.00;;;;;;2612623;54;21589;-58
2024/02/11 01:32:25;;;;;;;2.57;2.37;;;17.00;1.00;;;;;;2613333;54;20433;-62
2024/02/11 01:34:50;;;;;;;4.43;3.27;;;17.00;1.00;;;;;;2612969;54;20188;-61
2024/02/11 01:37:16;;;;;;;2.80;2.60;;;17.00;1.00;;;;;;2612822;54;20172;-61
2024/02/11 01:39:42;;;;;;;3.40;3.00;;;17.00;1.00;;;;;;2613331;54;20239;-61
2024/02/11 01:42:07;;;;;;;3.97;2.80;;;17.00;1.00;;;;;;2612979;54;20157;-61
2024/02/11 01:44:33;;;;;;;2.60;2.40;;;17.00;1.00;;;;;;2612483;54;20155;-61
2024/02/11 01:47:02;;;;;;;2.30;2.10;;;17.00;1.00;;;;;;2612165;54;20155;-61
2024/02/11 01:49:28;;;;;;;2.90;2.57;;;17.00;1.00;;;;;;2612885;39;20570;-61
2024/02/11 01:51:55;;;;;;;3.00;2.70;;;17.00;1.00;;;;;;2612771;39;20842;-61
2024/02/11 01:54:21;;;;;;;3.77;2.73;;;17.00;1.00;;;;;;2613375;54;20412;-62
2024/02/11 01:56:50;;;;;;;2.67;2.47;;;17.00;1.00;;;;;;2613206;54;20419;-62
2024/02/11 01:59:18;;;;;;;2.53;2.33;;;17.00;1.00;;;;;;2613318;54;20428;-62
2024/02/11 02:01:45;;;;;;;2.80;2.60;;;17.00;1.00;;;;;;2612743;54;20405;-62
2024/02/11 02:04:11;;;;;;;3.43;3.10;;;16.90;1.00;;;;;;2612680;54;20402;-62
2024/02/11 02:06:37;;;;;;;2.73;2.53;;;17.00;1.00;;;;;;2612588;54;20392;-62
2024/02/11 02:09:03;;;;;;;3.73;3.07;;;17.00;1.00;;;;;;2612997;54;20450;-62
2024/02/11 02:11:30;;;;;;;3.57;3.27;;;17.00;1.00;;;;;;2612797;54;20429;-63
2024/02/11 02:13:56;;;;;;;3.27;2.97;;;17.00;1.00;;;;;;2613093;54;20434;-64
2024/02/11 02:16:24;;;;;;;2.70;2.50;;;17.00;1.00;;;;;;2612657;54;20427;-65
2024/02/11 02:18:51;;;;;;;2.87;2.67;;;17.00;1.00;;;;;;2613185;54;20167;-62
2024/02/11 02:21:18;;;;;;;3.63;2.67;;;17.00;1.00;;;;;;2612525;54;20408;-62
2024/02/11 02:23:48;;;;;;;2.90;2.70;;;17.00;1.00;;;;;;2611743;54;21002;-62
2024/02/11 02:26:14;;;;;;;3.10;2.90;;;17.00;1.00;;;;;;2613081;39;20892;-62
2024/02/11 02:28:40;;;;;;;3.37;2.90;;;17.00;1.00;;;;;;2613155;51;20418;-63
2024/02/11 02:31:07;;;;;;;3.50;3.20;;;17.00;1.00;;;;;;2613132;54;20160;-63
2024/02/11 02:33:36;;;;;;;3.20;2.90;;;17.00;1.00;;;;;;2613176;54;20165;-63
2024/02/11 02:36:02;;;;;;;3.50;3.20;;;17.00;1.00;;;;;;2612931;54;20962;-64
2024/02/11 02:38:28;;;;;;;4.50;3.70;;;17.00;1.00;;;;;;2612831;54;20405;-64
2024/02/11 02:40:54;;;;;;;4.57;3.73;;;17.00;1.00;;;;;;2613302;39;20779;-64
2024/02/11 02:43:19;;;;;;;3.83;3.43;;;17.00;1.00;;;;;;2611962;51;20170;-60
2024/02/11 02:45:45;;;;;;;3.47;3.17;;;17.00;1.00;;;;;;2613003;54;20157;-59
2024/02/11 02:48:11;;;;;;;3.87;3.47;;;17.00;1.00;;;;;;2613117;54;20227;-59
2024/02/11 02:50:37;;;;;;;4.17;3.87;;;17.00;1.00;;;;;;2613493;39;20641;-59
2024/02/11 02:53:03;;;;;;;4.40;4.00;;;17.00;1.00;;;;;;2612792;54;20231;-60
2024/02/11 02:55:29;;;;;;;4.07;3.67;;;16.90;1.00;;;;;;2612345;54;20179;-60
2024/02/11 02:57:55;;;;;;;3.63;3.20;;;17.00;1.00;;;;;;2612933;54;20415;-59
2024/02/11 03:00:21;;;;;;;4.50;3.87;;;17.00;1.00;;;;;;2612214;54;21099;-61
2024/02/11 03:02:51;;;;;;;4.60;3.70;;;16.90;1.00;;;;;;2612775;54;20143;-60
2024/02/11 03:05:17;;;;;;;3.63;3.17;;;17.00;1.00;;;;;;2612383;47;20516;-60
2024/02/11 03:07:42;;;;;;;3.83;3.43;;;17.00;1.00;;;;;;2612590;54;20421;-60
2024/02/11 03:10:16;;;;;;;4.30;3.73;;;17.00;1.00;;;;;;2613160;54;20151;-59
2024/02/11 03:12:42;;;;;;;3.97;3.67;;;16.90;1.00;;;;;;2613084;54;20192;-59
2024/02/11 03:15:10;;;;;;;5.33;4.07;;;17.00;1.00;;;;;;2612798;54;20454;-59
2024/02/11 03:17:36;;;;;;;3.80;3.50;;;17.00;1.00;;;;;;2612518;54;20520;-59
2024/02/11 03:20:02;;;;;;;3.73;3.43;;;17.00;1.00;;;;;;2613513;39;20823;-59
2024/02/11 03:22:28;;;;;;;3.73;3.43;;;16.90;1.00;;;;;;2613269;54;20457;-64
2024/02/11 03:24:54;;;;;;;3.43;2.97;;;17.00;1.00;;;;;;2613005;54;20388;-64
2024/02/11 03:27:23;;;;;;;3.50;3.20;;;17.00;1.00;;;;;;2613804;54;20147;-64
2024/02/11 03:29:49;;;;;;;4.00;3.60;;;17.00;1.00;;;;;;2612979;54;20450;-64
2024/02/11 03:32:15;;;;;;;4.03;3.60;;;16.90;1.00;;;;;;2613634;54;20953;-64
2024/02/11 03:34:41;;;;;;;4.07;3.67;;;16.90;1.00;;;;;;2613347;39;20797;-64
2024/02/11 03:37:07;;;;;;;4.60;4.20;;;17.00;1.00;;;;;;2613824;54;20418;-64
2024/02/11 03:39:34;;;;;;;3.87;3.57;;;16.90;1.00;;;;;;2614090;54;20160;-63
2024/02/11 03:41:59;;;;;;;3.87;3.50;;;16.90;1.00;;;;;;2612835;54;20161;-64
2024/02/11 03:44:25;;;;;;;3.73;3.40;;;17.00;1.00;;;;;;2613829;54;20422;-73
2024/02/11 03:46:51;;;;;;;5.73;4.00;;;17.00;1.00;;;;;;2613782;54;20163;-73
2024/02/11 03:49:16;;;;;;;4.03;3.67;;;16.90;1.00;;;;;;2614302;54;20173;-72
2024/02/11 03:51:42;;;;;;;4.00;3.60;;;17.00;1.00;;;;;;2613869;54;20189;-73
2024/02/11 03:54:08;;;;;;;3.83;3.50;;;17.00;1.00;;;;;;2613220;47;20170;-61
2024/02/11 03:56:34;;;;;;;4.07;3.53;;;17.00;1.00;;;;;;2613716;31;20647;-61
2024/02/11 03:58:59;;;;;;;4.33;3.60;;;16.90;1.00;;;;;;2612928;54;20508;-64
2024/02/11 04:01:27;;;;;;;4.10;3.70;;;17.00;1.00;;;;;;2613023;54;20151;-62
2024/02/11 04:03:53;;;;;;;3.97;3.57;;;16.90;1.00;;;;;;2613307;54;20176;-62
2024/02/11 04:06:20;;;;;;;4.33;3.90;;;16.90;1.00;;;;;;2613191;54;20400;-62
2024/02/11 04:08:47;;;;;;;3.80;3.50;;;16.90;1.00;;;;;;2613454;54;20182;-63
2024/02/11 04:11:12;;;;;;;3.80;3.50;;;16.90;1.00;;;;;;2613059;54;20996;-62
2024/02/11 04:13:38;;;;;;;4.93;4.47;;;16.90;1.00;;;;;;2612878;54;20402;-63
2024/02/11 04:16:16;;;;;;;4.10;3.70;;;16.90;1.00;;;;;;2613403;54;20229;-62
2024/02/11 04:18:45;;;;;;;4.17;3.77;;;16.90;1.00;;;;;;2613476;54;20515;-63
2024/02/11 04:21:10;;;;;;;3.77;3.47;;;16.90;1.00;;;;;;2613303;54;20434;-63
2024/02/11 04:23:38;;;;;;;3.90;3.60;;;16.90;1.00;;;;;;2612966;54;20438;-63
2024/02/11 04:26:08;;;;;;;4.23;3.83;;;16.90;1.00;;;;;;2613168;54;20163;-62
2024/02/11 04:28:37;;;;;;;4.07;3.40;;;16.90;1.00;;;;;;2612563;54;20416;-62
2024/02/11 04:31:09;;;;;;;3.33;3.03;;;17.00;1.00;;;;;;2613511;54;20514;-63
2024/02/11 04:33:42;;;;;;;3.73;3.43;;;17.00;1.00;;;;;;2613357;54;20412;-62
2024/02/11 04:36:13;;;;;;;4.23;3.63;;;16.90;1.00;;;;;;2612904;54;20418;-62
2024/02/11 04:38:39;;;;;;;4.40;3.70;;;16.90;1.00;;;;;;2613124;39;20805;-61
2024/02/11 04:41:05;;;;;;;3.77;3.33;;;16.90;1.00;;;;;;2613070;54;20823;-62
2024/02/11 04:43:36;;;;;;;3.43;3.13;;;16.90;1.00;;;;;;2612290;54;20406;-62
2024/02/11 04:46:03;;;;;;;5.20;3.30;;;16.90;1.00;;;;;;2612806;54;20686;-62
2024/02/11 04:48:32;;;;;;;3.57;3.20;;;16.90;1.00;;;;;;2613669;54;20526;-62
2024/02/11 04:50:59;;;;;;;4.13;3.73;;;16.90;1.00;;;;;;2613079;54;20409;-62
2024/02/11 04:53:26;;;;;;;4.07;3.67;;;16.90;1.00;;;;;;2613189;54;20433;-61
2024/02/11 04:55:53;;;;;;;4.20;3.80;;;16.90;1.00;;;;;;2613754;39;20847;-59
2024/02/11 04:58:19;;;;;;;3.47;3.17;;;16.90;1.00;;;;;;2613177;39;20945;-59
2024/02/11 05:00:47;;;;;;;3.43;3.13;;;17.00;1.00;;;;;;2613498;54;20427;-60
2024/02/11 05:03:17;;;;;;;4.30;3.90;;;16.90;1.00;;;;;;2613129;54;20143;-66
2024/02/11 05:05:44;;;;;;;3.90;3.37;;;16.90;1.00;;;;;;2612276;54;20527;-65
2024/02/11 05:08:10;;;;;;;4.00;3.37;;;16.90;1.00;;;;;;2613619;39;20833;-65
2024/02/11 05:10:37;;;;;;;3.60;3.30;;;16.90;1.00;;;;;;2613288;47;20438;-65
2024/02/11 05:13:07;;;;;;;2.70;2.50;;;16.90;1.00;;;;;;2612047;47;20419;-66
2024/02/11 05:15:37;;;;;;;3.83;3.40;;;16.90;1.00;;;;;;2613296;54;20418;-66
2024/02/11 05:18:03;;;;;;;3.57;3.27;;;16.90;1.00;;;;;;2612815;54;20434;-65
2024/02/11 05:20:29;;;;;;;3.17;2.93;;;16.90;1.00;;;;;;2613478;54;20400;-64
2024/02/11 05:22:57;;;;;;;2.70;2.50;;;16.90;1.00;;;;;;2612986;54;20398;-65
2024/02/11 05:25:23;;;;;;;3.50;3.20;;;16.90;1.00;;;;;;2612281;54;20228;-66
2024/02/11 05:27:55;;;;;;;3.53;3.23;;;16.90;1.00;;;;;;2612408;54;20397;-65
2024/02/11 05:30:23;;;;;;;3.30;2.57;;;16.90;1.00;;;;;;2612836;54;20933;-66
2024/02/11 05:32:50;;;;;;;3.27;2.97;;;16.90;1.00;;;;;;2612053;54;21022;-66
2024/02/11 05:35:17;;;;;;;2.67;2.47;;;16.90;1.00;;;;;;2612297;54;20407;-66
2024/02/11 05:37:44;;;;;;;2.93;2.73;;;16.90;1.00;;;;;;2612656;54;21065;-66
2024/02/11 05:40:11;;;;;;;3.07;2.77;;;16.90;1.00;;;;;;2612079;54;20396;-66
2024/02/11 05:42:42;;;;;;;2.63;2.40;;;16.90;1.00;;;;;;2612911;47;20425;-59
2024/02/11 05:45:08;;;;;;;2.83;2.63;;;16.90;1.00;;;;;;2612321;39;20939;-59
2024/02/11 05:47:34;;;;;;;2.67;2.47;;;17.00;1.00;;;;;;2612561;54;20469;-59
2024/02/11 05:50:00;;;;;;;3.27;2.97;;;16.90;1.00;;;;;;2612240;54;20407;-58
2024/02/11 05:52:26;;;;;;;2.60;2.40;;;16.90;1.00;;;;;;2611534;54;20168;-58
2024/02/11 05:54:51;;;;;;;3.83;2.57;;;16.90;1.00;;;;;;2611303;54;20432;-58
2024/02/11 05:57:18;;;;;;;3.50;3.20;;;16.90;1.00;;;;;;2612125;54;20186;-59
2024/02/11 05:59:45;;;;;;;2.90;2.70;;;16.90;1.00;;;;;;2612263;54;20211;-59
2024/02/11 06:02:11;;;;;;;2.93;2.63;;;16.90;1.00;;;;;;2612607;54;20406;-59
2024/02/11 06:04:36;;;;;;;2.73;2.53;;;16.90;1.00;;;;;;2612117;54;21176;-73
2024/02/11 06:07:04;;;;;;;2.60;2.40;;;16.90;1.00;;;;;;2613343;39;20603;-72
2024/02/11 06:09:30;;;;;;;2.77;2.53;;;16.90;1.00;;;;;;2611789;54;20163;-73
2024/02/11 06:11:56;;;;;;;3.23;2.50;;;16.90;1.00;;;;;;2612717;54;20411;-72
2024/02/11 06:14:22;;;;;;;2.70;2.50;;;16.90;1.00;;;;;;2613279;39;20925;-66
2024/02/11 06:16:47;;;;;;;2.27;2.07;;;16.90;1.00;;;;;;2611963;54;20407;-66
2024/02/11 06:19:13;;;;;;;2.60;2.40;;;16.90;1.00;;;;;;2612521;54;20186;-67
2024/02/11 06:21:40;;;;;;;2.70;2.50;;;16.90;1.00;;;;;;2611868;54;20294;-67
2024/02/11 06:24:05;;;;;;;3.03;2.83;;;16.90;1.00;;;;;;2611982;54;20415;-67
2024/02/11 06:26:31;;;;;;;2.47;2.27;;;16.90;1.00;;;;;;2612271;54;20399;-67
2024/02/11 06:28:58;;;;;;;2.50;2.30;;;16.90;1.00;;;;;;2611875;54;20194;-68
2024/02/11 06:31:24;;;;;;;2.60;2.40;;;16.90;1.00;;;;;;2612315;54;20159;-66
2024/02/11 06:33:50;;;;;;;2.70;2.50;;;16.90;1.00;;;;;;2611999;54;20408;-67
2024/02/11 06:36:16;;;;;;;2.50;2.20;;;16.90;1.00;;;;;;2613184;31;20869;-67
2024/02/11 06:38:43;;;;;;;2.80;2.60;;;16.90;1.00;;;;;;2611973;54;20163;-67
2024/02/11 06:41:09;;;;;;;3.83;2.60;;;16.90;1.00;;;;;;2612289;54;20490;-67
2024/02/11 06:43:35;;;;;;;2.93;2.73;;;16.90;1.00;;;;;;2611870;54;20433;-67
2024/02/11 06:46:03;;;;;;;2.50;2.30;;;16.90;1.00;;;;;;2612426;54;20407;-67
2024/02/11 06:48:29;;;;;;;2.50;2.30;;;16.90;1.00;;;;;;2611688;54;20177;-67
2024/02/11 06:50:55;;;;;;;2.30;2.10;;;16.90;1.00;;;;;;2611963;54;20410;-66
2024/02/11 06:53:20;;;;;;;2.57;2.37;;;16.90;1.00;;;;;;2612269;54;20400;-63
2024/02/11 06:55:47;;;;;;;2.40;2.20;;;16.90;1.00;;;;;;2612212;54;20397;-64
2024/02/11 06:58:13;;;;;;;3.00;2.80;;;16.90;1.00;;;;;;2612390;54;20156;-63
2024/02/11 07:00:38;;;;;;;2.70;2.50;;;16.90;1.00;;;;;;2611567;47;20427;-63
2024/02/11 07:03:04;;;;;;;2.40;2.20;;;16.90;1.00;;;;;;2610921;54;20205;-63
2024/02/11 07:05:33;;;;;;;2.70;2.50;;;16.90;1.00;;;;;;2612518;39;20556;-64
2024/02/11 07:08:02;;;;;;;4.93;2.37;;;16.90;1.00;;;;;;2612036;54;20403;-64
2024/02/11 07:10:28;;;;;;;2.07;1.90;;;16.90;1.00;;;;;;2612676;54;20392;-63
2024/02/11 07:12:55;;;;;;;2.70;2.50;;;16.90;1.00;;;;;;2611708;54;20440;-66
2024/02/11 07:15:20;;;;;;;2.10;1.90;;;16.90;1.00;;;;;;2612121;54;20417;-67
2024/02/11 07:17:46;;;;;;;2.63;2.43;;;16.90;1.00;;;;;;2612025;54;20399;-67
2024/02/11 07:20:14;;;;;;;2.60;2.40;;;16.90;1.00;;;;;;2611514;54;20182;-67
2024/02/11 07:22:43;;;;;;;2.40;2.20;;;16.90;1.00;;;;;;2611576;54;20761;-63
2024/02/11 07:25:09;;;;;;;2.20;2.00;;;16.90;1.00;;;;;;2612489;47;20991;-63
2024/02/11 07:27:35;;;;;;;2.40;2.20;;;16.90;1.00;;;;;;2611734;54;20456;-63
2024/02/11 07:30:02;;;;;;;2.60;2.40;;;16.90;1.00;;;;;;2611733;54;20418;-64
2024/02/11 07:32:28;;;;;;;3.20;2.30;;;16.90;1.00;;;;;;2611312;54;20434;-63
2024/02/11 07:34:57;;;;;;;2.73;2.53;;;16.90;1.00;;;;;;2611404;54;20420;-64
2024/02/11 07:37:23;;;;;;;2.70;2.50;;;16.90;1.00;;;;;;2612152;54;20166;-64
2024/02/11 07:39:53;;;;;;;2.87;2.67;;;16.90;1.00;;;;;;2611848;39;21093;-65
2024/02/11 07:42:20;;;;;;;2.57;2.37;;;16.90;1.00;;;;;;2611269;54;20527;-63
2024/02/11 07:44:46;;;;;;;2.47;2.27;;;16.90;1.00;;;;;;2611658;47;20429;-63
2024/02/11 07:47:12;;;;;;;4.13;2.60;;;16.90;1.00;;;;;;2611519;39;20910;-63
2024/02/11 07:49:38;;;;;;;2.33;2.13;;;16.90;1.00;;;;;;2611414;54;20183;-63
2024/02/11 07:52:06;;;;;;;2.50;2.30;;;16.90;1.00;;;;;;2611661;54;20189;-63
2024/02/11 07:54:33;;;;;;;3.60;2.40;;;16.90;1.00;;;;;;2611711;54;20440;-63
2024/02/11 07:56:59;;;;;;;2.00;1.90;;;16.90;1.00;;;;;;2611255;54;20426;-63
2024/02/11 07:59:25;;;;;;;2.53;2.33;;;16.90;1.00;;;;;;2612046;39;20828;-63
2024/02/11 08:01:50;;;;;;;2.37;2.13;;;16.90;1.00;;;;;;2611894;54;20275;-64
2024/02/11 08:04:16;;;;;;;3.33;2.53;;;16.90;1.00;;;;;;2612693;54;20175;-59
2024/02/11 08:06:43;;;;;;;3.10;2.80;;;16.90;1.00;;;;;;2612436;54;20159;-58
2024/02/11 08:09:09;;;;;;;2.40;2.20;;;17.00;1.00;;;;;;2611900;54;20201;-59
2024/02/11 08:11:40;;;;;;;5.30;2.20;;;16.90;1.00;;;;;;2612633;54;20458;-60
2024/02/11 08:14:07;;;;;;;2.47;2.20;;;16.90;1.00;;;;;;2611863;54;20438;-59
2024/02/11 08:16:33;;;;;;;2.80;2.50;;;16.90;1.00;;;;;;2612663;54;20416;-59
2024/02/11 08:18:59;;;;;;;2.30;2.10;;;16.90;1.00;;;;;;2612748;54;21281;-59
2024/02/11 08:21:25;;;;;;;2.87;2.20;;;16.90;1.00;;;;;;2612574;54;20472;-59
2024/02/11 08:23:51;;;;;;;3.00;2.47;;;16.90;1.00;;;;;;2611397;54;20442;-66
2024/02/11 08:26:17;;;;;;;4.73;2.33;;;16.90;1.00;;;;;;2611777;54;20190;-67
2024/02/11 08:28:44;;;;;;;5.20;2.27;;;16.90;1.00;;;;;;2612758;54;20184;-66
2024/02/11 08:31:11;;;;;;;2.63;2.27;;;16.90;1.00;;;;;;2612175;54;20424;-67
2024/02/11 08:33:36;;;;;;;2.20;2.10;;;16.90;1.00;;;;;;2612046;54;20417;-59
2024/02/11 08:36:02;;;;;;;2.60;2.40;;;16.90;1.00;;;;;;2612418;54;20475;-59
2024/02/11 08:38:28;;;;;;;3.00;2.00;;;16.90;1.00;;;;;;2611887;54;20166;-59
2024/02/11 08:40:54;;;;;;;3.47;2.17;;;16.90;1.00;;;;;;2612356;54;20156;-59
2024/02/11 08:43:20;;;;;;;1.93;1.83;;;16.90;1.00;;;;;;2612169;54;20166;-59
2024/02/11 08:45:46;;;;;;;3.30;2.60;;;16.90;1.00;;;;;;2611877;54;20443;-59
2024/02/11 08:48:11;;;;;;;2.50;2.30;;;16.90;1.00;;;;;;2612348;54;20439;-59
2024/02/11 08:50:38;;;;;;;2.13;1.93;;;16.90;1.00;;;;;;2612217;54;20840;-58
2024/02/11 08:53:05;;;;;;;3.00;2.30;;;16.90;1.00;;;;;;2612206;54;20177;-59
2024/02/11 08:55:30;;;;;;;1.93;1.73;;;16.90;1.00;;;;;;2612040;54;20448;-60
2024/02/11 08:57:59;;;;;;;2.67;2.47;;;16.90;1.00;;;;;;2611247;54;20500;-59
2024/02/11 09:00:25;;;;;;;2.57;2.37;;;16.90;1.00;;;;;;2611327;54;20167;-59
2024/02/11 09:02:50;;;;;;;2.23;2.03;;;16.90;1.00;;;;;;2612249;54;20398;-59
2024/02/11 09:05:16;;;;;;;2.63;2.03;;;16.90;1.00;;;;;;2612012;54;20163;-59
2024/02/11 09:07:42;;;;;;;2.90;2.10;;;16.90;1.00;;;;;;2611611;54;20304;-59
2024/02/11 09:10:09;;;;;;;2.17;1.97;;;16.90;1.00;;;;;;2611742;54;20168;-58
2024/02/11 09:12:34;;;;;;;2.47;2.10;;;16.90;1.00;;;;;;2611755;47;20511;-71
2024/02/11 09:15:01;;;;;;;2.30;2.10;;;16.90;1.00;;;;;;2611476;54;20422;-73
2024/02/11 09:17:30;;;;;;;3.17;2.33;;;16.90;1.00;;;;;;2613213;39;20672;-71
2024/02/11 09:19:56;;;;;;;2.40;2.07;;;16.90;1.00;;;;;;2612748;47;20503;-73
2024/02/11 09:22:21;;;;;;;3.10;2.40;;;16.90;1.00;;;;;;2612944;54;20406;-73
2024/02/11 09:24:48;;;;;;;2.80;2.43;;;16.90;1.00;;;;;;2612419;54;20219;-72
2024/02/11 09:27:14;;;;;;;3.00;2.70;;;16.90;1.00;;;;;;2612919;54;20155;-72
2024/02/11 09:29:39;;;;;;;2.67;1.97;;;16.90;1.00;;;;;;2611703;47;20478;-72
2024/02/11 09:32:06;;;;;;;2.03;1.90;;;16.90;1.00;;;;;;2613038;54;20656;-73
2024/02/11 09:34:31;;;;;;;2.60;2.40;;;16.90;1.00;;;;;;2612214;54;20159;-63
2024/02/11 09:36:57;;;;;;;2.50;2.30;;;16.90;1.00;;;;;;2610905;54;20392;-64
2024/02/11 09:39:23;;;;;;;2.90;2.10;;;16.90;1.00;;;;;;2611814;47;20163;-63
2024/02/11 09:41:50;;;;;;;3.60;2.47;;;16.90;1.00;;;;;;2612110;54;20148;-64
2024/02/11 09:44:22;;;;;;;3.37;2.07;;;16.90;1.00;;;;;;2612037;54;20189;-63
2024/02/11 09:46:50;;;;;;;3.80;2.30;;;16.90;1.00;;;;;;2612176;54;20416;-63
2024/02/11 09:49:20;;;;;;;3.00;2.80;;;16.90;1.00;;;;;;2612044;54;20396;-63
2024/02/11 09:51:46;;;;;;;4.20;2.60;;;16.90;1.00;;;;;;2612458;50;20420;-63
2024/02/11 09:54:14;;;;;;;2.63;2.20;;;16.90;1.00;;;;;;2611197;54;20484;-64
2024/02/11 09:56:42;;;;;;;2.20;2.00;;;16.90;1.00;;;;;;2612174;54;20429;-63
2024/02/11 09:59:11;;;;;;;2.50;2.30;;;16.90;1.00;;;;;;2609953;47;20431;-63
2024/02/11 10:01:41;;;;;;;2.80;2.40;;;16.90;1.00;;;;;;2612480;54;20409;-62
2024/02/11 10:04:07;;;;;;;4.60;2.63;;;16.90;1.00;;;;;;2611525;54;20404;-63
2024/02/11 10:06:42;;;;;;;2.63;2.40;;;16.90;1.00;;;;;;2612138;54;20400;-63
2024/02/11 10:09:12;;;;;;;2.27;2.03;;;16.90;1.00;;;;;;2611572;54;20424;-63
2024/02/11 10:11:41;;;;;;;2.23;2.03;;;16.90;1.00;;;;;;2611042;47;21033;-63
2024/02/11 10:14:13;;;;;;;3.17;2.87;;;16.90;1.00;;;;;;2611737;51;20484;-63
2024/02/11 10:16:42;;;;;;;2.97;2.33;;;16.90;1.00;;;;;;2611763;54;20409;-63
2024/02/11 10:19:09;;;;;;;2.53;2.07;;;16.90;1.00;;;;;;2611434;54;20421;-64
2024/02/11 10:21:35;;;;;;;2.40;2.20;;;16.90;1.00;;;;;;2611642;54;20426;-64
2024/02/11 10:24:04;;;;;;;3.00;2.10;;;16.90;1.00;;;;;;2611943;54;20446;-62
2024/02/11 10:26:35;;;;;;;2.43;2.00;;;16.90;1.00;;;;;;2611653;54;20417;-62
2024/02/11 10:29:04;;;;;;;2.57;2.10;;;16.90;1.00;;;;;;2612054;54;20439;-62
2024/02/11 10:31:30;;;;;;;2.80;2.60;;;16.90;1.00;;;;;;2612092;54;20422;-62
2024/02/11 10:33:57;;;;;;;2.80;2.27;;;16.90;1.00;;;;;;2611840;54;20416;-62
2024/02/11 10:36:26;;;;;;;2.27;2.07;;;16.90;1.00;;;;;;2611077;54;20163;-62
2024/02/11 10:38:56;;;;;;;3.23;2.47;;;16.90;1.00;;;;;;2611966;54;20427;-62
2024/02/11 10:41:26;;;;;;;2.50;2.30;;;16.90;1.00;;;;;;2611326;54;20492;-62
2024/02/11 10:43:52;;;;;;;2.60;2.30;;;16.90;1.00;;;;;;2611936;54;20416;-63
2024/02/11 10:46:20;;;;;;;5.23;2.80;;;16.90;1.00;;;;;;2611981;54;21084;-62
2024/02/11 10:48:46;;;;;;;2.37;2.10;;;16.90;1.00;;;;;;2612914;54;20429;-62
2024/02/11 10:51:20;;;;;;;2.70;1.93;;;17.00;1.00;;;;;;2612677;54;20412;-64
2024/02/11 10:53:50;;;;;;;2.20;2.00;;;16.90;1.00;;;;;;2612972;54;20223;-72
2024/02/11 10:56:18;;;;;;;2.27;2.07;;;16.90;1.00;;;;;;2612004;54;20415;-71
2024/02/11 10:58:51;;;;;;;2.60;2.37;;;16.90;1.00;;;;;;2611949;47;20463;-72
2024/02/11 11:01:21;;;;;;;3.00;2.67;;;16.90;1.00;;;;;;2611439;54;20933;-71
2024/02/11 11:03:49;;;;;;;3.10;2.40;;;16.90;1.00;;;;;;2612302;54;20544;-72
2024/02/11 11:06:18;;;;;;;2.77;2.10;;;16.90;1.00;;;;;;2612082;54;20405;-71
2024/02/11 11:08:45;;;;;;;3.10;2.80;;;17.00;1.00;;;;;;2611478;54;20410;-71
2024/02/11 11:11:22;;;;;;;2.17;2.03;;;16.90;1.00;;;;;;2611776;54;20401;-72
2024/02/11 11:13:49;;;;;;;2.20;2.00;;;17.00;1.00;;;;;;2612104;54;20416;-72
2024/02/11 11:16:22;;;;;;;2.40;2.20;;;17.00;1.00;;;;;;2612295;54;20452;-72
2024/02/11 11:18:48;;;;;;;4.83;2.33;;;16.90;1.00;;;;;;2612414;47;20437;-72
2024/02/11 11:21:16;;;;;;;2.23;2.03;;;17.00;1.00;;;;;;2612310;39;20906;-71
2024/02/11 11:23:45;;;;;;;2.67;2.47;;;17.00;1.00;;;;;;2611549;54;20149;-71
2024/02/11 11:26:11;;;;;;;2.87;2.53;;;17.00;1.00;;;;;;2612225;54;20508;-72
2024/02/11 11:28:42;;;;;;;3.63;2.40;;;17.00;1.00;;;;;;2612569;54;20432;-72
2024/02/11 11:31:07;;;;;;;2.70;2.27;;;17.00;1.00;;;;;;2612205;54;20170;-71
2024/02/11 11:33:34;;;;;;;2.60;2.40;;;17.00;1.00;;;;;;2612845;39;21791;-72
2024/02/11 11:36:02;;;;;;;2.43;2.23;;;17.00;1.00;;;;;;2613248;54;20182;-72
2024/02/11 11:38:28;;;;;;;2.60;2.40;;;17.00;1.00;;;;;;2612682;54;20442;-71
2024/02/11 11:40:54;;;;;;;2.57;2.27;;;17.00;1.00;;;;;;2613274;54;20933;-71
2024/02/11 11:43:23;;;;;;;2.30;2.10;;;17.00;1.00;;;;;;2612509;54;20436;-72
2024/02/11 11:45:54;;;;;;;2.80;2.50;;;17.00;1.00;;;;;;2612361;54;21210;-72
2024/02/11 11:48:21;;;;;;;2.37;2.17;;;17.00;1.00;;;;;;2612707;54;20432;-71
2024/02/11 11:51:00;;;;;;;3.00;2.77;;;17.00;1.00;;;;;;2612888;54;20431;-72
2024/02/11 11:53:28;;;;;;;3.60;2.23;;;17.00;1.00;;;;;;2612305;47;20431;-63
2024/02/11 11:55:56;;;;;;;3.20;3.00;;;17.00;1.00;;;;;;2612067;47;20423;-64
2024/02/11 11:58:27;;;;;;;4.10;2.40;;;17.10;1.00;;;;;;2611563;47;20436;-64
2024/02/11 12:00:57;;;;;;;2.90;2.27;;;17.00;1.00;;;;;;2612140;54;20391;-63
2024/02/11 12:03:24;;;;;;;5.80;2.50;;;17.00;1.00;;;;;;2612452;39;20802;-64
2024/02/11 12:05:50;;;;;;;2.50;2.30;;;17.00;1.00;;;;;;2611996;54;20434;-66
2024/02/11 12:08:16;;;;;;;2.60;2.40;;;17.00;1.00;;;;;;2612794;54;20426;-65
2024/02/11 12:10:42;;;;;;;2.20;2.00;;;17.00;1.00;;;;;;2612620;39;20792;-65
2024/02/11 12:13:17;;;;;;;2.23;2.03;;;17.00;1.00;;;;;;2611833;47;20512;-64
2024/02/11 12:15:43;;;;;;;2.83;2.60;;;17.00;1.00;;;;;;2612666;39;20578;-64
2024/02/11 12:18:11;;;;;;;2.87;2.67;;;17.00;1.00;;;;;;2610526;54;21052;-65
2024/02/11 12:20:43;;;;;;;2.67;2.33;;;17.00;1.00;;;;;;2612174;54;20399;-66
2024/02/11 12:23:11;;;;;;;2.20;2.00;;;17.00;1.00;;;;;;2611931;54;20426;-66
2024/02/11 12:25:38;;;;;;;3.10;2.70;;;17.00;1.00;;;;;;2611912;54;20432;-66
2024/02/11 12:28:06;;;;;;;2.50;2.27;;;17.00;1.00;;;;;;2612304;54;20406;-66
2024/02/11 12:30:33;;;;;;;2.20;2.00;;;17.00;1.00;;;;;;2612507;54;20412;-65
2024/02/11 12:32:59;;;;;;;2.40;2.20;;;17.00;1.00;;;;;;2611824;54;20442;-65
2024/02/11 12:35:31;;;;;;;2.10;2.00;;;17.00;1.00;;;;;;2612279;54;20409;-65
2024/02/11 12:37:58;;;;;;;4.60;2.83;;;17.00;1.00;;;;;;2612092;54;20401;-65
2024/02/11 12:40:24;;;;;;;3.33;2.17;;;17.00;1.00;;;;;;2612271;54;20430;-64
2024/02/11 12:43:00;;;;;;;2.60;2.40;;;17.00;1.00;;;;;;2611983;54;20403;-63
2024/02/11 12:45:27;;;;;;;2.57;2.20;;;17.00;1.00;;;;;;2612030;54;20466;-62
2024/02/11 12:47:54;;;;;;;2.87;2.30;;;17.00;1.00;;;;;;2612066;47;20515;-64
2024/02/11 12:50:24;;;;;;;2.60;2.20;;;17.00;1.00;;;;;;2613183;39;20816;-63
2024/02/11 12:52:50;;;;;;;3.00;2.70;;;17.00;1.00;;;;;;2611849;54;20408;-63
2024/02/11 12:55:16;;;;;;;2.60;2.40;;;17.00;1.00;;;;;;2612257;47;20451;-63
2024/02/11 12:57:42;;;;;;;2.23;2.03;;;17.00;1.00;;;;;;2611129;47;20443;-64